sensor_id;sensor_type;location;lat;lon;timestamp;P1;durP1;ratioP1;P2;durP2;ratioP2
10934;SDS011;5520;45.752;4.874;2023-02-24T00:01:18;33.30;;;17.23;;
10934;SDS011;5520;45.752;4.874;2023-02-24T00:03:52;27.43;;;17.23;;
10934;SDS011;5520;45.752;4.874;2023-02-24T00:06:22;27.77;;;17.30;;
10934;SDS011;5520;45.752;4.874;2023-02-24T00:08:50;26.53;;;16.53;;
10934;SDS011;5520;45.752;4.874;2023-02-24T00:11:18;28.90;;;16.60;;
10934;SDS011;5520;45.752;4.874;2023-02-24T00:13:47;24.07;;;15.57;;
10934;SDS011;5520;45.752;4.874;2023-02-24T00:16:15;26.07;;;15.97;;
10934;SDS011;5520;45.752;4.874;2023-02-24T00:18:44;24.57;;;16.97;;
10934;SDS011;5520;45.752;4.874;2023-02-24T00:21:14;26.07;;;16.03;;
10934;SDS011;5520;45.752;4.874;2023-02-24T00:23:43;24.00;;;15.37;;
10934;SDS011;5520;45.752;4.874;2023-02-24T00:26:13;26.83;;;16.90;;
10934;SDS011;5520;45.752;4.874;2023-02-24T00:28:41;25.20;;;15.53;;
10934;SDS011;5520;45.752;4.874;2023-02-24T00:31:10;25.73;;;16.27;;
10934;SDS011;5520;45.752;4.874;2023-02-24T00:33:39;25.50;;;16.20;;
10934;SDS011;5520;45.752;4.874;2023-02-24T00:36:08;25.80;;;15.70;;
10934;SDS011;5520;45.752;4.874;2023-02-24T00:38:38;23.33;;;14.97;;
10934;SDS011;5520;45.752;4.874;2023-02-24T00:41:10;24.80;;;14.13;;
10934;SDS011;5520;45.752;4.874;2023-02-24T00:43:40;22.93;;;13.90;;
10934;SDS011;5520;45.752;4.874;2023-02-24T00:46:13;19.00;;;13.27;;
10934;SDS011;5520;45.752;4.874;2023-02-24T00:48:43;23.43;;;14.43;;
10934;SDS011;5520;45.752;4.874;2023-02-24T00:51:13;22.87;;;13.47;;
10934;SDS011;5520;45.752;4.874;2023-02-24T00:53:43;20.43;;;12.70;;
10934;SDS011;5520;45.752;4.874;2023-02-24T00:56:11;21.77;;;12.60;;
10934;SDS011;5520;45.752;4.874;2023-02-24T00:58:41;19.60;;;12.13;;
10934;SDS011;5520;45.752;4.874;2023-02-24T01:01:11;16.73;;;11.33;;
10934;SDS011;5520;45.752;4.874;2023-02-24T01:03:40;18.63;;;11.90;;
10934;SDS011;5520;45.752;4.874;2023-02-24T01:06:08;17.23;;;12.40;;
10934;SDS011;5520;45.752;4.874;2023-02-24T01:08:37;19.23;;;12.53;;
10934;SDS011;5520;45.752;4.874;2023-02-24T01:11:07;20.30;;;11.70;;
10934;SDS011;5520;45.752;4.874;2023-02-24T01:13:52;21.03;;;12.83;;
10934;SDS011;5520;45.752;4.874;2023-02-24T01:16:20;21.57;;;12.67;;
10934;SDS011;5520;45.752;4.874;2023-02-24T01:18:48;17.63;;;12.70;;
10934;SDS011;5520;45.752;4.874;2023-02-24T01:21:18;20.90;;;12.77;;
10934;SDS011;5520;45.752;4.874;2023-02-24T01:23:47;19.53;;;12.93;;
10934;SDS011;5520;45.752;4.874;2023-02-24T01:26:17;21.97;;;13.67;;
10934;SDS011;5520;45.752;4.874;2023-02-24T01:28:45;21.50;;;12.90;;
10934;SDS011;5520;45.752;4.874;2023-02-24T01:31:14;21.93;;;13.97;;
10934;SDS011;5520;45.752;4.874;2023-02-24T01:33:45;21.47;;;14.67;;
10934;SDS011;5520;45.752;4.874;2023-02-24T01:36:16;24.73;;;14.97;;
10934;SDS011;5520;45.752;4.874;2023-02-24T01:38:44;26.20;;;16.23;;
10934;SDS011;5520;45.752;4.874;2023-02-24T01:41:16;24.07;;;15.60;;
10934;SDS011;5520;45.752;4.874;2023-02-24T01:43:56;23.57;;;15.43;;
10934;SDS011;5520;45.752;4.874;2023-02-24T01:46:25;24.13;;;16.20;;
10934;SDS011;5520;45.752;4.874;2023-02-24T01:48:54;28.17;;;16.63;;
10934;SDS011;5520;45.752;4.874;2023-02-24T01:51:23;31.60;;;17.30;;
10934;SDS011;5520;45.752;4.874;2023-02-24T01:53:52;25.10;;;15.17;;
10934;SDS011;5520;45.752;4.874;2023-02-24T01:56:21;23.80;;;16.50;;
10934;SDS011;5520;45.752;4.874;2023-02-24T01:58:49;23.77;;;16.10;;
10934;SDS011;5520;45.752;4.874;2023-02-24T02:01:19;27.20;;;17.03;;
10934;SDS011;5520;45.752;4.874;2023-02-24T02:03:48;28.20;;;17.00;;
10934;SDS011;5520;45.752;4.874;2023-02-24T02:06:17;23.83;;;16.60;;
10934;SDS011;5520;45.752;4.874;2023-02-24T02:08:45;24.03;;;17.00;;
10934;SDS011;5520;45.752;4.874;2023-02-24T02:11:14;30.70;;;17.30;;
10934;SDS011;5520;45.752;4.874;2023-02-24T02:13:48;35.23;;;17.20;;
10934;SDS011;5520;45.752;4.874;2023-02-24T02:16:25;25.87;;;17.53;;
10934;SDS011;5520;45.752;4.874;2023-02-24T02:19:01;30.67;;;18.33;;
10934;SDS011;5520;45.752;4.874;2023-02-24T02:21:40;27.37;;;17.23;;
10934;SDS011;5520;45.752;4.874;2023-02-24T02:24:18;27.93;;;18.70;;
10934;SDS011;5520;45.752;4.874;2023-02-24T02:26:51;32.90;;;19.10;;
10934;SDS011;5520;45.752;4.874;2023-02-24T02:32:16;30.97;;;16.50;;
10934;SDS011;5520;45.752;4.874;2023-02-24T02:34:49;27.10;;;17.47;;
10934;SDS011;5520;45.752;4.874;2023-02-24T02:37:22;29.47;;;17.67;;
10934;SDS011;5520;45.752;4.874;2023-02-24T02:39:55;25.57;;;17.63;;
10934;SDS011;5520;45.752;4.874;2023-02-24T02:42:27;24.63;;;17.67;;
10934;SDS011;5520;45.752;4.874;2023-02-24T02:44:58;26.60;;;18.20;;
10934;SDS011;5520;45.752;4.874;2023-02-24T02:47:33;26.23;;;17.57;;
10934;SDS011;5520;45.752;4.874;2023-02-24T02:50:06;27.10;;;18.00;;
10934;SDS011;5520;45.752;4.874;2023-02-24T02:52:38;29.27;;;18.07;;
10934;SDS011;5520;45.752;4.874;2023-02-24T02:55:08;34.50;;;16.90;;
10934;SDS011;5520;45.752;4.874;2023-02-24T02:57:37;30.30;;;18.70;;
10934;SDS011;5520;45.752;4.874;2023-02-24T03:00:07;28.33;;;18.20;;
10934;SDS011;5520;45.752;4.874;2023-02-24T03:02:39;29.50;;;17.37;;
10934;SDS011;5520;45.752;4.874;2023-02-24T03:05:10;28.07;;;17.30;;
10934;SDS011;5520;45.752;4.874;2023-02-24T03:07:44;28.93;;;17.63;;
10934;SDS011;5520;45.752;4.874;2023-02-24T03:10:14;26.77;;;16.93;;
10934;SDS011;5520;45.752;4.874;2023-02-24T03:12:47;28.17;;;17.07;;
10934;SDS011;5520;45.752;4.874;2023-02-24T03:15:16;25.90;;;16.77;;
10934;SDS011;5520;45.752;4.874;2023-02-24T03:17:46;26.30;;;16.63;;
10934;SDS011;5520;45.752;4.874;2023-02-24T03:20:19;25.70;;;17.03;;
10934;SDS011;5520;45.752;4.874;2023-02-24T03:22:48;30.07;;;18.43;;
10934;SDS011;5520;45.752;4.874;2023-02-24T03:25:19;25.43;;;16.73;;
10934;SDS011;5520;45.752;4.874;2023-02-24T03:27:50;22.13;;;15.17;;
10934;SDS011;5520;45.752;4.874;2023-02-24T03:30:21;25.80;;;16.60;;
10934;SDS011;5520;45.752;4.874;2023-02-24T03:32:53;27.53;;;16.50;;
10934;SDS011;5520;45.752;4.874;2023-02-24T03:35:24;24.10;;;16.50;;
10934;SDS011;5520;45.752;4.874;2023-02-24T03:37:53;27.27;;;16.23;;
10934;SDS011;5520;45.752;4.874;2023-02-24T03:40:23;26.77;;;16.53;;
10934;SDS011;5520;45.752;4.874;2023-02-24T03:42:57;26.13;;;16.30;;
10934;SDS011;5520;45.752;4.874;2023-02-24T03:45:26;22.70;;;15.63;;
10934;SDS011;5520;45.752;4.874;2023-02-24T03:47:54;25.23;;;15.70;;
10934;SDS011;5520;45.752;4.874;2023-02-24T03:50:26;30.73;;;16.60;;
10934;SDS011;5520;45.752;4.874;2023-02-24T03:52:58;28.70;;;17.20;;
10934;SDS011;5520;45.752;4.874;2023-02-24T03:55:34;28.87;;;16.17;;
10934;SDS011;5520;45.752;4.874;2023-02-24T03:58:07;26.03;;;16.27;;
10934;SDS011;5520;45.752;4.874;2023-02-24T04:00:39;25.97;;;17.60;;
10934;SDS011;5520;45.752;4.874;2023-02-24T04:03:18;26.10;;;16.53;;
10934;SDS011;5520;45.752;4.874;2023-02-24T04:05:53;25.63;;;16.23;;
10934;SDS011;5520;45.752;4.874;2023-02-24T04:08:25;25.60;;;16.40;;
10934;SDS011;5520;45.752;4.874;2023-02-24T04:10:57;27.10;;;15.57;;
10934;SDS011;5520;45.752;4.874;2023-02-24T04:13:32;23.07;;;16.00;;
10934;SDS011;5520;45.752;4.874;2023-02-24T04:16:05;25.40;;;16.50;;
10934;SDS011;5520;45.752;4.874;2023-02-24T04:18:39;24.73;;;16.27;;
10934;SDS011;5520;45.752;4.874;2023-02-24T04:21:08;26.73;;;15.70;;
10934;SDS011;5520;45.752;4.874;2023-02-24T04:23:39;33.60;;;16.53;;
10934;SDS011;5520;45.752;4.874;2023-02-24T04:26:08;26.27;;;16.10;;
10934;SDS011;5520;45.752;4.874;2023-02-24T04:28:39;25.77;;;15.60;;
10934;SDS011;5520;45.752;4.874;2023-02-24T04:31:10;23.10;;;16.40;;
10934;SDS011;5520;45.752;4.874;2023-02-24T04:33:44;26.47;;;16.70;;
10934;SDS011;5520;45.752;4.874;2023-02-24T04:36:17;23.27;;;15.80;;
10934;SDS011;5520;45.752;4.874;2023-02-24T04:38:46;20.87;;;14.90;;
10934;SDS011;5520;45.752;4.874;2023-02-24T04:41:14;27.97;;;15.80;;
10934;SDS011;5520;45.752;4.874;2023-02-24T04:43:47;27.80;;;16.23;;
10934;SDS011;5520;45.752;4.874;2023-02-24T04:46:16;27.27;;;16.43;;
10934;SDS011;5520;45.752;4.874;2023-02-24T04:48:44;23.50;;;15.70;;
10934;SDS011;5520;45.752;4.874;2023-02-24T04:51:12;22.63;;;15.13;;
10934;SDS011;5520;45.752;4.874;2023-02-24T04:53:42;27.37;;;16.30;;
10934;SDS011;5520;45.752;4.874;2023-02-24T04:56:10;26.03;;;16.07;;
10934;SDS011;5520;45.752;4.874;2023-02-24T04:58:39;26.13;;;14.67;;
10934;SDS011;5520;45.752;4.874;2023-02-24T05:01:09;22.87;;;15.90;;
10934;SDS011;5520;45.752;4.874;2023-02-24T05:03:38;26.87;;;16.37;;
10934;SDS011;5520;45.752;4.874;2023-02-24T05:06:12;25.30;;;16.27;;
10934;SDS011;5520;45.752;4.874;2023-02-24T05:08:43;25.90;;;15.73;;
10934;SDS011;5520;45.752;4.874;2023-02-24T05:11:11;24.17;;;15.37;;
10934;SDS011;5520;45.752;4.874;2023-02-24T05:13:41;21.30;;;15.30;;
10934;SDS011;5520;45.752;4.874;2023-02-24T05:16:12;28.17;;;16.07;;
10934;SDS011;5520;45.752;4.874;2023-02-24T05:18:41;26.23;;;16.43;;
10934;SDS011;5520;45.752;4.874;2023-02-24T05:21:10;25.53;;;14.63;;
10934;SDS011;5520;45.752;4.874;2023-02-24T05:23:58;27.00;;;16.27;;
10934;SDS011;5520;45.752;4.874;2023-02-24T05:26:32;21.57;;;15.17;;
10934;SDS011;5520;45.752;4.874;2023-02-24T05:29:01;26.03;;;15.00;;
10934;SDS011;5520;45.752;4.874;2023-02-24T05:31:29;23.50;;;16.47;;
10934;SDS011;5520;45.752;4.874;2023-02-24T05:33:58;28.60;;;16.73;;
10934;SDS011;5520;45.752;4.874;2023-02-24T05:36:28;22.80;;;15.20;;
10934;SDS011;5520;45.752;4.874;2023-02-24T05:38:58;22.47;;;15.40;;
10934;SDS011;5520;45.752;4.874;2023-02-24T05:41:32;26.70;;;17.63;;
10934;SDS011;5520;45.752;4.874;2023-02-24T05:44:02;27.40;;;16.93;;
10934;SDS011;5520;45.752;4.874;2023-02-24T05:46:34;26.60;;;18.20;;
10934;SDS011;5520;45.752;4.874;2023-02-24T05:49:04;26.37;;;17.93;;
10934;SDS011;5520;45.752;4.874;2023-02-24T05:51:35;31.17;;;19.20;;
10934;SDS011;5520;45.752;4.874;2023-02-24T05:54:06;28.60;;;17.37;;
10934;SDS011;5520;45.752;4.874;2023-02-24T05:56:36;25.30;;;17.20;;
10934;SDS011;5520;45.752;4.874;2023-02-24T05:59:05;28.37;;;17.90;;
10934;SDS011;5520;45.752;4.874;2023-02-24T06:01:35;25.60;;;17.80;;
10934;SDS011;5520;45.752;4.874;2023-02-24T06:04:04;29.10;;;17.80;;
10934;SDS011;5520;45.752;4.874;2023-02-24T06:06:32;25.33;;;16.93;;
10934;SDS011;5520;45.752;4.874;2023-02-24T06:09:04;23.40;;;16.40;;
10934;SDS011;5520;45.752;4.874;2023-02-24T06:11:37;25.03;;;16.37;;
10934;SDS011;5520;45.752;4.874;2023-02-24T06:14:06;22.43;;;15.87;;
10934;SDS011;5520;45.752;4.874;2023-02-24T06:16:35;23.40;;;16.33;;
10934;SDS011;5520;45.752;4.874;2023-02-24T06:19:03;26.83;;;16.73;;
10934;SDS011;5520;45.752;4.874;2023-02-24T06:21:31;24.07;;;17.13;;
10934;SDS011;5520;45.752;4.874;2023-02-24T06:24:01;23.47;;;16.63;;
10934;SDS011;5520;45.752;4.874;2023-02-24T06:26:29;25.53;;;17.00;;
10934;SDS011;5520;45.752;4.874;2023-02-24T06:29:00;29.07;;;16.97;;
10934;SDS011;5520;45.752;4.874;2023-02-24T06:31:31;25.87;;;16.80;;
10934;SDS011;5520;45.752;4.874;2023-02-24T06:33:58;26.47;;;16.67;;
10934;SDS011;5520;45.752;4.874;2023-02-24T06:36:27;23.93;;;16.00;;
10934;SDS011;5520;45.752;4.874;2023-02-24T06:38:55;27.03;;;17.10;;
10934;SDS011;5520;45.752;4.874;2023-02-24T06:41:23;24.80;;;16.37;;
10934;SDS011;5520;45.752;4.874;2023-02-24T06:43:54;27.80;;;17.50;;
10934;SDS011;5520;45.752;4.874;2023-02-24T06:46:24;28.33;;;17.93;;
10934;SDS011;5520;45.752;4.874;2023-02-24T06:48:52;40.80;;;25.17;;
10934;SDS011;5520;45.752;4.874;2023-02-24T06:51:20;33.50;;;20.27;;
10934;SDS011;5520;45.752;4.874;2023-02-24T06:53:49;28.60;;;17.33;;
10934;SDS011;5520;45.752;4.874;2023-02-24T06:56:17;28.07;;;19.40;;
10934;SDS011;5520;45.752;4.874;2023-02-24T06:58:47;25.70;;;17.37;;
10934;SDS011;5520;45.752;4.874;2023-02-24T07:01:16;24.37;;;17.47;;
10934;SDS011;5520;45.752;4.874;2023-02-24T07:03:46;27.17;;;17.20;;
10934;SDS011;5520;45.752;4.874;2023-02-24T07:06:29;26.17;;;17.20;;
10934;SDS011;5520;45.752;4.874;2023-02-24T07:09:00;28.30;;;17.07;;
10934;SDS011;5520;45.752;4.874;2023-02-24T07:11:30;26.27;;;17.67;;
10934;SDS011;5520;45.752;4.874;2023-02-24T07:13:59;24.80;;;17.00;;
10934;SDS011;5520;45.752;4.874;2023-02-24T07:16:27;26.27;;;17.67;;
10934;SDS011;5520;45.752;4.874;2023-02-24T07:18:58;24.40;;;16.97;;
10934;SDS011;5520;45.752;4.874;2023-02-24T07:21:28;21.37;;;14.90;;
10934;SDS011;5520;45.752;4.874;2023-02-24T07:24:05;28.37;;;16.40;;
10934;SDS011;5520;45.752;4.874;2023-02-24T07:26:34;22.33;;;15.40;;
10934;SDS011;5520;45.752;4.874;2023-02-24T07:29:07;26.23;;;16.77;;
10934;SDS011;5520;45.752;4.874;2023-02-24T07:31:37;28.30;;;17.53;;
10934;SDS011;5520;45.752;4.874;2023-02-24T07:34:06;28.80;;;17.57;;
10934;SDS011;5520;45.752;4.874;2023-02-24T07:36:34;26.20;;;16.20;;
10934;SDS011;5520;45.752;4.874;2023-02-24T07:39:15;30.60;;;17.00;;
10934;SDS011;5520;45.752;4.874;2023-02-24T07:41:43;25.33;;;15.23;;
10934;SDS011;5520;45.752;4.874;2023-02-24T07:44:15;25.67;;;16.33;;
10934;SDS011;5520;45.752;4.874;2023-02-24T07:46:43;24.10;;;16.17;;
10934;SDS011;5520;45.752;4.874;2023-02-24T07:49:14;25.07;;;16.13;;
10934;SDS011;5520;45.752;4.874;2023-02-24T07:51:43;25.40;;;16.83;;
10934;SDS011;5520;45.752;4.874;2023-02-24T07:54:12;28.37;;;17.50;;
10934;SDS011;5520;45.752;4.874;2023-02-24T07:56:41;26.50;;;18.60;;
10934;SDS011;5520;45.752;4.874;2023-02-24T07:59:14;31.13;;;18.37;;
10934;SDS011;5520;45.752;4.874;2023-02-24T08:01:44;33.13;;;18.63;;
10934;SDS011;5520;45.752;4.874;2023-02-24T08:04:18;31.50;;;17.70;;
10934;SDS011;5520;45.752;4.874;2023-02-24T08:06:48;26.53;;;16.53;;
10934;SDS011;5520;45.752;4.874;2023-02-24T08:09:22;23.80;;;16.40;;
10934;SDS011;5520;45.752;4.874;2023-02-24T08:12:05;23.90;;;16.00;;
10934;SDS011;5520;45.752;4.874;2023-02-24T08:14:33;21.70;;;15.47;;
10934;SDS011;5520;45.752;4.874;2023-02-24T08:17:10;25.03;;;16.60;;
10934;SDS011;5520;45.752;4.874;2023-02-24T08:19:46;27.00;;;16.03;;
10934;SDS011;5520;45.752;4.874;2023-02-24T08:22:15;22.00;;;15.53;;
10934;SDS011;5520;45.752;4.874;2023-02-24T08:24:46;23.67;;;16.00;;
10934;SDS011;5520;45.752;4.874;2023-02-24T08:27:16;22.50;;;16.10;;
10934;SDS011;5520;45.752;4.874;2023-02-24T08:29:46;23.40;;;16.03;;
10934;SDS011;5520;45.752;4.874;2023-02-24T08:32:25;22.27;;;16.50;;
10934;SDS011;5520;45.752;4.874;2023-02-24T08:35:01;24.57;;;16.53;;
10934;SDS011;5520;45.752;4.874;2023-02-24T08:37:30;27.53;;;16.90;;
10934;SDS011;5520;45.752;4.874;2023-02-24T08:40:06;26.10;;;16.87;;
10934;SDS011;5520;45.752;4.874;2023-02-24T08:42:54;28.77;;;16.87;;
10934;SDS011;5520;45.752;4.874;2023-02-24T08:45:24;23.97;;;15.97;;
10934;SDS011;5520;45.752;4.874;2023-02-24T08:47:54;27.40;;;16.97;;
10934;SDS011;5520;45.752;4.874;2023-02-24T08:50:28;25.13;;;17.80;;
10934;SDS011;5520;45.752;4.874;2023-02-24T08:52:59;25.23;;;18.03;;
10934;SDS011;5520;45.752;4.874;2023-02-24T08:55:27;26.23;;;17.13;;
10934;SDS011;5520;45.752;4.874;2023-02-24T08:57:58;28.83;;;18.57;;
10934;SDS011;5520;45.752;4.874;2023-02-24T09:00:27;27.53;;;18.40;;
10934;SDS011;5520;45.752;4.874;2023-02-24T09:03:15;26.13;;;17.27;;
10934;SDS011;5520;45.752;4.874;2023-02-24T09:06:02;29.27;;;18.43;;
10934;SDS011;5520;45.752;4.874;2023-02-24T09:08:31;28.40;;;17.70;;
10934;SDS011;5520;45.752;4.874;2023-02-24T09:10:59;31.63;;;20.43;;
10934;SDS011;5520;45.752;4.874;2023-02-24T09:13:34;32.37;;;19.63;;
10934;SDS011;5520;45.752;4.874;2023-02-24T09:16:02;30.70;;;20.10;;
10934;SDS011;5520;45.752;4.874;2023-02-24T09:18:31;30.37;;;19.93;;
10934;SDS011;5520;45.752;4.874;2023-02-24T09:21:08;30.80;;;19.77;;
10934;SDS011;5520;45.752;4.874;2023-02-24T09:24:02;25.70;;;18.37;;
10934;SDS011;5520;45.752;4.874;2023-02-24T09:26:32;30.53;;;19.73;;
10934;SDS011;5520;45.752;4.874;2023-02-24T09:29:09;38.37;;;20.13;;
10934;SDS011;5520;45.752;4.874;2023-02-24T09:31:59;28.87;;;19.60;;
10934;SDS011;5520;45.752;4.874;2023-02-24T09:34:31;29.50;;;18.17;;
10934;SDS011;5520;45.752;4.874;2023-02-24T09:37:01;32.00;;;18.80;;
10934;SDS011;5520;45.752;4.874;2023-02-24T09:39:30;29.43;;;18.47;;
10934;SDS011;5520;45.752;4.874;2023-02-24T09:42:20;30.97;;;17.93;;
10934;SDS011;5520;45.752;4.874;2023-02-24T09:45:01;27.33;;;18.60;;
10934;SDS011;5520;45.752;4.874;2023-02-24T09:47:32;29.33;;;18.40;;
10934;SDS011;5520;45.752;4.874;2023-02-24T09:50:27;25.63;;;17.33;;
10934;SDS011;5520;45.752;4.874;2023-02-24T09:53:31;28.00;;;17.20;;
10934;SDS011;5520;45.752;4.874;2023-02-24T09:56:09;26.00;;;17.10;;
10934;SDS011;5520;45.752;4.874;2023-02-24T09:58:42;29.40;;;16.83;;
10934;SDS011;5520;45.752;4.874;2023-02-24T10:01:21;27.03;;;17.20;;
10934;SDS011;5520;45.752;4.874;2023-02-24T10:03:57;24.13;;;17.00;;
10934;SDS011;5520;45.752;4.874;2023-02-24T10:06:46;26.30;;;16.20;;
10934;SDS011;5520;45.752;4.874;2023-02-24T10:09:17;26.27;;;17.40;;
10934;SDS011;5520;45.752;4.874;2023-02-24T10:11:50;26.67;;;15.90;;
10934;SDS011;5520;45.752;4.874;2023-02-24T10:14:33;23.87;;;16.83;;
10934;SDS011;5520;45.752;4.874;2023-02-24T10:17:13;24.47;;;16.10;;
10934;SDS011;5520;45.752;4.874;2023-02-24T10:19:53;25.23;;;17.73;;
10934;SDS011;5520;45.752;4.874;2023-02-24T10:22:35;26.47;;;17.47;;
10934;SDS011;5520;45.752;4.874;2023-02-24T10:25:17;28.33;;;15.60;;
10934;SDS011;5520;45.752;4.874;2023-02-24T10:27:49;25.57;;;16.87;;
10934;SDS011;5520;45.752;4.874;2023-02-24T10:30:27;26.90;;;16.67;;
10934;SDS011;5520;45.752;4.874;2023-02-24T10:36:03;23.53;;;16.70;;
10934;SDS011;5520;45.752;4.874;2023-02-24T10:38:35;28.07;;;17.37;;
10934;SDS011;5520;45.752;4.874;2023-02-24T10:41:07;23.40;;;15.80;;
10934;SDS011;5520;45.752;4.874;2023-02-24T10:43:35;26.20;;;15.47;;
10934;SDS011;5520;45.752;4.874;2023-02-24T10:46:19;23.10;;;16.23;;
10934;SDS011;5520;45.752;4.874;2023-02-24T10:49:07;25.93;;;16.20;;
10934;SDS011;5520;45.752;4.874;2023-02-24T10:51:38;25.40;;;16.33;;
10934;SDS011;5520;45.752;4.874;2023-02-24T10:54:09;26.10;;;16.17;;
10934;SDS011;5520;45.752;4.874;2023-02-24T10:57:07;23.20;;;16.30;;
10934;SDS011;5520;45.752;4.874;2023-02-24T10:59:45;28.47;;;16.80;;
10934;SDS011;5520;45.752;4.874;2023-02-24T11:02:44;24.00;;;15.87;;
10934;SDS011;5520;45.752;4.874;2023-02-24T11:05:22;26.23;;;17.50;;
10934;SDS011;5520;45.752;4.874;2023-02-24T11:08:05;27.20;;;16.57;;
10934;SDS011;5520;45.752;4.874;2023-02-24T11:10:37;23.57;;;16.93;;
10934;SDS011;5520;45.752;4.874;2023-02-24T11:13:20;24.40;;;16.20;;
10934;SDS011;5520;45.752;4.874;2023-02-24T11:16:06;23.50;;;15.77;;
10934;SDS011;5520;45.752;4.874;2023-02-24T11:18:52;26.53;;;15.87;;
10934;SDS011;5520;45.752;4.874;2023-02-24T11:21:22;23.83;;;16.17;;
10934;SDS011;5520;45.752;4.874;2023-02-24T11:23:50;22.40;;;15.10;;
10934;SDS011;5520;45.752;4.874;2023-02-24T11:26:20;22.23;;;14.27;;
10934;SDS011;5520;45.752;4.874;2023-02-24T11:28:51;23.37;;;14.70;;
10934;SDS011;5520;45.752;4.874;2023-02-24T11:31:30;26.17;;;15.33;;
10934;SDS011;5520;45.752;4.874;2023-02-24T11:34:03;25.00;;;15.63;;
10934;SDS011;5520;45.752;4.874;2023-02-24T11:36:36;20.53;;;13.97;;
10934;SDS011;5520;45.752;4.874;2023-02-24T11:39:11;18.57;;;13.83;;
10934;SDS011;5520;45.752;4.874;2023-02-24T11:41:48;47.13;;;30.40;;
10934;SDS011;5520;45.752;4.874;2023-02-24T11:44:22;22.27;;;17.03;;
10934;SDS011;5520;45.752;4.874;2023-02-24T11:46:54;23.83;;;13.57;;
10934;SDS011;5520;45.752;4.874;2023-02-24T11:49:25;21.07;;;14.77;;
10934;SDS011;5520;45.752;4.874;2023-02-24T11:51:55;25.67;;;14.10;;
10934;SDS011;5520;45.752;4.874;2023-02-24T11:54:25;22.77;;;14.23;;
10934;SDS011;5520;45.752;4.874;2023-02-24T11:56:54;21.00;;;13.17;;
10934;SDS011;5520;45.752;4.874;2023-02-24T11:59:28;28.10;;;14.70;;
10934;SDS011;5520;45.752;4.874;2023-02-24T12:01:58;24.80;;;12.17;;
10934;SDS011;5520;45.752;4.874;2023-02-24T12:04:30;21.37;;;13.23;;
10934;SDS011;5520;45.752;4.874;2023-02-24T12:07:00;14.10;;;10.20;;
10934;SDS011;5520;45.752;4.874;2023-02-24T12:09:33;19.97;;;11.47;;
10934;SDS011;5520;45.752;4.874;2023-02-24T12:12:04;21.17;;;11.83;;
10934;SDS011;5520;45.752;4.874;2023-02-24T12:14:36;14.47;;;10.27;;
10934;SDS011;5520;45.752;4.874;2023-02-24T12:17:11;13.13;;;7.77;;
10934;SDS011;5520;45.752;4.874;2023-02-24T12:19:54;15.13;;;5.33;;
10934;SDS011;5520;45.752;4.874;2023-02-24T12:22:25;11.93;;;4.90;;
10934;SDS011;5520;45.752;4.874;2023-02-24T12:24:55;18.63;;;5.13;;
10934;SDS011;5520;45.752;4.874;2023-02-24T12:27:25;13.27;;;5.97;;
10934;SDS011;5520;45.752;4.874;2023-02-24T12:30:02;21.70;;;6.40;;
10934;SDS011;5520;45.752;4.874;2023-02-24T12:32:37;13.27;;;5.40;;
10934;SDS011;5520;45.752;4.874;2023-02-24T12:35:10;14.73;;;5.37;;
10934;SDS011;5520;45.752;4.874;2023-02-24T12:37:51;17.20;;;5.20;;
10934;SDS011;5520;45.752;4.874;2023-02-24T12:40:24;9.83;;;5.00;;
10934;SDS011;5520;45.752;4.874;2023-02-24T12:42:56;11.43;;;5.53;;
10934;SDS011;5520;45.752;4.874;2023-02-24T12:45:32;12.60;;;5.53;;
10934;SDS011;5520;45.752;4.874;2023-02-24T12:48:05;10.97;;;5.30;;
10934;SDS011;5520;45.752;4.874;2023-02-24T12:50:42;8.20;;;4.97;;
10934;SDS011;5520;45.752;4.874;2023-02-24T12:53:14;7.47;;;4.30;;
10934;SDS011;5520;45.752;4.874;2023-02-24T12:55:45;14.03;;;4.50;;
10934;SDS011;5520;45.752;4.874;2023-02-24T12:58:18;11.87;;;5.13;;
10934;SDS011;5520;45.752;4.874;2023-02-24T13:00:53;10.90;;;4.63;;
10934;SDS011;5520;45.752;4.874;2023-02-24T13:03:31;12.23;;;4.57;;
10934;SDS011;5520;45.752;4.874;2023-02-24T13:06:06;12.77;;;4.17;;
10934;SDS011;5520;45.752;4.874;2023-02-24T13:08:38;14.73;;;7.43;;
10934;SDS011;5520;45.752;4.874;2023-02-24T13:11:11;8.60;;;4.03;;
10934;SDS011;5520;45.752;4.874;2023-02-24T13:13:43;10.23;;;3.90;;
10934;SDS011;5520;45.752;4.874;2023-02-24T13:16:25;7.90;;;4.20;;
10934;SDS011;5520;45.752;4.874;2023-02-24T13:19:02;13.27;;;4.20;;
10934;SDS011;5520;45.752;4.874;2023-02-24T13:21:30;15.60;;;4.43;;
10934;SDS011;5520;45.752;4.874;2023-02-24T13:23:59;11.27;;;3.87;;
10934;SDS011;5520;45.752;4.874;2023-02-24T13:26:29;10.27;;;4.00;;
10934;SDS011;5520;45.752;4.874;2023-02-24T13:28:58;8.40;;;3.97;;
10934;SDS011;5520;45.752;4.874;2023-02-24T13:31:37;12.57;;;4.77;;
10934;SDS011;5520;45.752;4.874;2023-02-24T13:34:11;10.70;;;3.57;;
10934;SDS011;5520;45.752;4.874;2023-02-24T13:36:44;10.77;;;3.80;;
10934;SDS011;5520;45.752;4.874;2023-02-24T13:39:19;9.33;;;3.60;;
10934;SDS011;5520;45.752;4.874;2023-02-24T13:41:48;12.50;;;4.63;;
10934;SDS011;5520;45.752;4.874;2023-02-24T13:44:21;11.10;;;4.13;;
10934;SDS011;5520;45.752;4.874;2023-02-24T13:46:54;16.17;;;4.77;;
10934;SDS011;5520;45.752;4.874;2023-02-24T13:49:28;13.80;;;3.93;;
10934;SDS011;5520;45.752;4.874;2023-02-24T13:52:01;14.67;;;4.97;;
10934;SDS011;5520;45.752;4.874;2023-02-24T13:54:37;9.37;;;3.87;;
10934;SDS011;5520;45.752;4.874;2023-02-24T13:57:15;8.30;;;3.53;;
10934;SDS011;5520;45.752;4.874;2023-02-24T13:59:57;11.37;;;4.30;;
10934;SDS011;5520;45.752;4.874;2023-02-24T14:02:28;8.53;;;4.27;;
10934;SDS011;5520;45.752;4.874;2023-02-24T14:04:57;9.67;;;3.57;;
10934;SDS011;5520;45.752;4.874;2023-02-24T14:07:27;12.83;;;4.03;;
10934;SDS011;5520;45.752;4.874;2023-02-24T14:09:56;12.30;;;4.73;;
10934;SDS011;5520;45.752;4.874;2023-02-24T14:12:26;10.07;;;3.53;;
10934;SDS011;5520;45.752;4.874;2023-02-24T14:14:55;12.47;;;4.07;;
10934;SDS011;5520;45.752;4.874;2023-02-24T14:17:25;13.17;;;4.17;;
10934;SDS011;5520;45.752;4.874;2023-02-24T14:20:06;8.23;;;2.93;;
10934;SDS011;5520;45.752;4.874;2023-02-24T14:22:41;6.63;;;2.50;;
10934;SDS011;5520;45.752;4.874;2023-02-24T14:25:09;6.37;;;2.30;;
10934;SDS011;5520;45.752;4.874;2023-02-24T14:27:37;4.87;;;2.07;;
10934;SDS011;5520;45.752;4.874;2023-02-24T14:30:19;3.40;;;1.63;;
10934;SDS011;5520;45.752;4.874;2023-02-24T14:32:47;1.77;;;1.30;;
10934;SDS011;5520;45.752;4.874;2023-02-24T14:35:22;3.03;;;1.40;;
10934;SDS011;5520;45.752;4.874;2023-02-24T14:37:51;3.73;;;1.40;;
10934;SDS011;5520;45.752;4.874;2023-02-24T14:40:19;3.87;;;1.37;;
10934;SDS011;5520;45.752;4.874;2023-02-24T14:42:51;5.17;;;1.90;;
10934;SDS011;5520;45.752;4.874;2023-02-24T14:45:20;1.60;;;1.30;;
10934;SDS011;5520;45.752;4.874;2023-02-24T14:47:50;3.03;;;1.40;;
10934;SDS011;5520;45.752;4.874;2023-02-24T14:50:19;3.27;;;0.90;;
10934;SDS011;5520;45.752;4.874;2023-02-24T14:52:51;3.07;;;1.23;;
10934;SDS011;5520;45.752;4.874;2023-02-24T14:55:20;2.23;;;1.20;;
10934;SDS011;5520;45.752;4.874;2023-02-24T14:57:50;0.77;;;0.77;;
10934;SDS011;5520;45.752;4.874;2023-02-24T15:00:22;2.73;;;1.50;;
10934;SDS011;5520;45.752;4.874;2023-02-24T15:02:53;1.83;;;1.43;;
10934;SDS011;5520;45.752;4.874;2023-02-24T15:05:23;1.27;;;1.00;;
10934;SDS011;5520;45.752;4.874;2023-02-24T15:07:52;0.90;;;0.90;;
10934;SDS011;5520;45.752;4.874;2023-02-24T15:10:21;2.93;;;1.27;;
10934;SDS011;5520;45.752;4.874;2023-02-24T15:12:50;1.07;;;0.90;;
10934;SDS011;5520;45.752;4.874;2023-02-24T15:15:20;1.83;;;0.73;;